createdAt,value
2022-08-10T00:01:51.530Z,17.80
2022-08-10T00:04:21.391Z,17.80
2022-08-10T00:06:49.282Z,17.90
2022-08-10T00:09:15.863Z,17.80
2022-08-10T00:11:42.482Z,17.80
2022-08-10T00:14:09.101Z,17.80
2022-08-10T00:16:35.694Z,17.70
2022-08-10T00:19:02.280Z,17.70
2022-08-10T00:21:28.878Z,17.70
2022-08-10T00:23:55.480Z,17.70
2022-08-10T00:26:22.170Z,17.70
2022-08-10T00:28:48.771Z,17.70
2022-08-10T00:31:15.374Z,17.70
2022-08-10T00:33:41.974Z,17.70
2022-08-10T00:36:08.568Z,17.70
2022-08-10T00:38:37.021Z,17.70
2022-08-10T00:41:03.939Z,17.60
2022-08-10T00:43:30.672Z,17.60
2022-08-10T00:45:59.499Z,17.50
2022-08-10T00:48:28.179Z,17.40
2022-08-10T00:50:54.892Z,17.30
2022-08-10T00:53:21.604Z,17.30
2022-08-10T00:57:15.049Z,17.30
2022-08-10T00:58:35.383Z,17.30
2022-08-10T01:01:02.051Z,17.20
2022-08-10T01:04:39.727Z,17.10
2022-08-10T01:06:18.745Z,17.10
2022-08-10T01:08:51.322Z,17.10
2022-08-10T01:12:27.627Z,17.00
2022-08-10T01:14:08.940Z,17.00
2022-08-10T01:16:47.574Z,17.00
2022-08-10T01:19:32.848Z,17.10
2022-08-10T01:21:59.717Z,17.10
2022-08-10T01:24:30.543Z,17.10
2022-08-10T01:27:15.858Z,17.10
2022-08-10T01:30:01.091Z,17.10
2022-08-10T01:32:32.495Z,17.00
2022-08-10T01:35:09.515Z,17.00
2022-08-10T01:37:38.194Z,17.00
2022-08-10T01:40:04.978Z,17.00
2022-08-10T01:42:32.695Z,17.00
2022-08-10T01:45:03.621Z,17.10
2022-08-10T01:47:49.186Z,17.10
2022-08-10T01:50:18.398Z,17.00
2022-08-10T01:53:28.644Z,17.00
2022-08-10T01:56:09.313Z,17.00
2022-08-10T01:58:36.193Z,17.00
2022-08-10T02:01:02.892Z,16.90
2022-08-10T02:03:29.566Z,17.00
2022-08-10T02:05:56.145Z,17.00
2022-08-10T02:08:23.188Z,17.00
2022-08-10T02:10:49.861Z,17.00
2022-08-10T02:13:17.424Z,17.00
2022-08-10T02:16:01.164Z,16.90
2022-08-10T02:18:29.660Z,16.90
2022-08-10T02:20:56.304Z,16.80
2022-08-10T02:23:27.148Z,16.80
2022-08-10T02:25:54.177Z,16.70
2022-08-10T02:28:27.276Z,16.70
2022-08-10T02:30:57.810Z,16.70
2022-08-10T02:33:26.136Z,16.60
2022-08-10T02:35:55.317Z,16.50
2022-08-10T02:38:59.299Z,16.30
2022-08-10T02:42:18.890Z,16.30
2022-08-10T02:45:21.243Z,16.30
2022-08-10T02:46:51.292Z,16.20
2022-08-10T02:49:20.122Z,16.20
2022-08-10T02:52:06.266Z,16.20
2022-08-10T02:54:36.095Z,16.10
2022-08-10T02:57:02.625Z,16.10
2022-08-10T02:59:39.587Z,16.10
2022-08-10T03:02:07.372Z,16.10
2022-08-10T03:04:55.302Z,16.10
2022-08-10T03:07:43.434Z,16.10
2022-08-10T03:10:18.647Z,16.10
2022-08-10T03:12:46.058Z,16.00
2022-08-10T03:15:15.991Z,16.00
2022-08-10T03:17:43.423Z,16.00
2022-08-10T03:20:37.019Z,16.00
2022-08-10T03:23:24.451Z,15.90
2022-08-10T03:25:54.196Z,15.90
2022-08-10T03:28:30.780Z,15.80
2022-08-10T03:30:58.074Z,15.90
2022-08-10T03:33:25.950Z,15.80
2022-08-10T03:36:41.370Z,15.90
2022-08-10T03:38:40.493Z,15.90
2022-08-10T03:41:09.028Z,15.90
2022-08-10T03:43:35.616Z,15.90
2022-08-10T03:46:03.323Z,15.80
2022-08-10T03:48:45.139Z,15.80
2022-08-10T03:51:16.124Z,15.80
2022-08-10T03:54:05.459Z,15.80
2022-08-10T03:56:32.002Z,15.80
2022-08-10T03:58:59.186Z,15.80
2022-08-10T04:02:41.490Z,15.70
2022-08-10T04:04:14.669Z,15.70
2022-08-10T04:06:44.931Z,15.60
2022-08-10T04:09:11.547Z,15.60
2022-08-10T04:11:40.678Z,15.50
2022-08-10T04:14:07.771Z,15.50
2022-08-10T04:16:54.337Z,15.70
2022-08-10T04:19:20.975Z,16.10
2022-08-10T04:22:02.900Z,16.30
2022-08-10T04:24:32.938Z,16.60
2022-08-10T04:27:00.459Z,17.00
2022-08-10T04:29:27.044Z,17.10
2022-08-10T04:31:53.641Z,17.00
2022-08-10T04:34:20.594Z,17.10
2022-08-10T04:36:47.497Z,17.60
2022-08-10T04:39:14.178Z,18.30
2022-08-10T04:41:41.943Z,19.00
2022-08-10T04:44:13.903Z,19.50
2022-08-10T04:46:55.986Z,20.00
2022-08-10T04:49:54.028Z,20.60
2022-08-10T04:52:11.781Z,21.10
2022-08-10T04:54:38.395Z,21.60
2022-08-10T04:57:05.140Z,22.10
2022-08-10T04:59:31.738Z,22.40
2022-08-10T05:02:28.434Z,22.50
2022-08-10T05:04:45.105Z,22.50
2022-08-10T05:07:16.733Z,22.10
2022-08-10T05:10:00.955Z,22.00
2022-08-10T05:12:30.695Z,22.30
2022-08-10T05:14:57.328Z,22.70
2022-08-10T05:17:23.980Z,23.50
2022-08-10T05:20:03.488Z,24.00
2022-08-10T05:22:39.842Z,24.60
2022-08-10T05:25:07.862Z,24.80
2022-08-10T05:27:34.605Z,25.40
2022-08-10T05:30:03.381Z,26.20
2022-08-10T05:32:57.299Z,26.80
2022-08-10T05:35:21.473Z,27.20
2022-08-10T05:38:10.082Z,27.60
2022-08-10T05:40:35.455Z,27.70
2022-08-10T05:43:02.055Z,27.10
2022-08-10T05:45:28.941Z,26.60
2022-08-10T05:48:54.255Z,26.30
2022-08-10T05:50:42.421Z,25.90
2022-08-10T05:53:56.722Z,25.80
2022-08-10T05:56:01.648Z,25.80
2022-08-10T05:58:28.216Z,25.90
2022-08-10T06:00:55.743Z,26.00
2022-08-10T06:03:25.105Z,25.70
2022-08-10T06:05:51.709Z,26.00
2022-08-10T06:08:19.512Z,26.10
2022-08-10T06:12:24.436Z,26.90
2022-08-10T06:13:59.926Z,27.30
2022-08-10T06:16:39.065Z,27.20
2022-08-10T06:19:05.637Z,27.90
2022-08-10T06:21:32.230Z,28.40
2022-08-10T06:23:58.965Z,28.80
2022-08-10T06:26:25.688Z,29.00
2022-08-10T06:29:02.892Z,29.00
2022-08-10T06:31:47.031Z,28.80
2022-08-10T06:34:16.249Z,28.90
2022-08-10T06:36:43.535Z,29.10
2022-08-10T06:39:31.761Z,28.90
2022-08-10T06:42:17.968Z,29.20
2022-08-10T06:44:47.481Z,29.30
2022-08-10T06:47:14.052Z,28.90
2022-08-10T06:49:49.633Z,28.60
2022-08-10T06:52:18.415Z,28.70
2022-08-10T06:54:45.237Z,29.10
2022-08-10T06:57:19.081Z,29.30
2022-08-10T06:59:45.972Z,29.30
2022-08-10T07:02:16.143Z,29.70
2022-08-10T07:04:50.379Z,30.10
2022-08-10T07:07:17.696Z,30.00
2022-08-10T07:09:45.152Z,30.10
2022-08-10T07:12:11.904Z,30.50
2022-08-10T07:14:42.615Z,30.70
2022-08-10T07:17:15.564Z,31.10
2022-08-10T07:19:49.805Z,31.00
2022-08-10T07:23:08.153Z,31.40
2022-08-10T07:25:07.099Z,31.20
2022-08-10T07:27:58.270Z,31.20
2022-08-10T07:30:20.609Z,31.40
2022-08-10T07:32:48.333Z,31.70
2022-08-10T07:35:15.252Z,31.60
2022-08-10T07:37:42.285Z,31.10
2022-08-10T07:40:09.082Z,31.10
2022-08-10T07:42:36.258Z,30.70
2022-08-10T07:45:03.416Z,30.60
2022-08-10T07:47:54.354Z,30.70
2022-08-10T07:50:22.279Z,31.00
2022-08-10T07:52:49.311Z,31.20
2022-08-10T07:55:17.105Z,31.50
2022-08-10T07:57:44.468Z,31.70
2022-08-10T08:00:11.879Z,31.70
2022-08-10T08:02:48.255Z,31.80
2022-08-10T08:05:27.564Z,31.70
2022-08-10T08:08:01.727Z,31.20
2022-08-10T08:10:28.709Z,31.60
2022-08-10T08:12:57.588Z,31.60
2022-08-10T08:16:18.399Z,31.80
2022-08-10T08:18:11.463Z,32.00
2022-08-10T08:20:38.496Z,31.90
2022-08-10T08:24:08.725Z,31.90
2022-08-10T08:25:53.412Z,31.80
2022-08-10T08:28:21.132Z,31.50
2022-08-10T08:30:48.992Z,31.30
2022-08-10T08:33:21.509Z,31.00
2022-08-10T08:36:02.972Z,30.70
2022-08-10T08:38:34.709Z,30.40
2022-08-10T08:41:22.156Z,30.10
2022-08-10T08:44:04.737Z,29.20
2022-08-10T08:46:38.669Z,28.20
2022-08-10T08:49:05.230Z,27.70
2022-08-10T08:52:09.909Z,26.90
2022-08-10T08:54:41.570Z,26.90
2022-08-10T08:57:11.393Z,26.60
2022-08-10T08:59:56.281Z,26.80
2022-08-10T09:02:29.173Z,26.90
2022-08-10T09:04:58.792Z,26.60
2022-08-10T09:07:59.134Z,26.60
2022-08-10T09:10:24.639Z,26.50
2022-08-10T09:13:09.867Z,26.70
2022-08-10T09:15:52.124Z,26.90
2022-08-10T09:18:37.549Z,26.90
2022-08-10T09:21:06.532Z,26.80
2022-08-10T09:24:01.821Z,26.90
2022-08-10T09:26:32.381Z,27.00
2022-08-10T09:29:12.354Z,27.10
2022-08-10T09:31:55.854Z,27.00
2022-08-10T09:36:19.530Z,27.20
2022-08-10T09:37:42.526Z,27.20
2022-08-10T09:40:59.562Z,27.20
2022-08-10T09:43:25.510Z,27.30
2022-08-10T09:46:02.871Z,27.50
2022-08-10T09:48:50.285Z,27.50
2022-08-10T09:54:20.773Z,27.20
2022-08-10T09:56:48.632Z,27.40
2022-08-10T10:00:01.228Z,27.30
2022-08-10T10:02:22.082Z,27.60
2022-08-10T10:04:55.605Z,27.90
2022-08-10T10:07:28.710Z,28.00
2022-08-10T10:09:58.292Z,27.80
2022-08-10T10:12:43.765Z,27.90
2022-08-10T10:15:26.187Z,28.00
2022-08-10T10:18:13.112Z,28.40
2022-08-10T10:20:58.452Z,28.80
2022-08-10T10:23:31.033Z,29.20
2022-08-10T10:26:05.027Z,28.70
2022-08-10T10:31:45.832Z,28.90
2022-08-10T10:34:14.281Z,28.90
2022-08-10T10:36:41.454Z,28.90
2022-08-10T10:39:08.408Z,29.10
2022-08-10T10:42:03.092Z,29.10
2022-08-10T10:44:30.805Z,29.20
2022-08-10T10:46:57.724Z,29.10
2022-08-10T10:49:27.089Z,29.10
2022-08-10T10:52:03.757Z,29.20
2022-08-10T10:54:41.525Z,29.20
2022-08-10T10:57:59.073Z,29.10
2022-08-10T11:00:22.087Z,28.70
2022-08-10T11:03:07.395Z,28.20
2022-08-10T11:05:37.969Z,28.60
2022-08-10T11:08:08.848Z,28.90
2022-08-10T11:10:47.355Z,28.90
2022-08-10T11:14:26.220Z,29.10
2022-08-10T11:16:08.346Z,29.10
2022-08-10T11:18:44.236Z,29.00
2022-08-10T11:21:16.040Z,28.80
2022-08-10T11:23:46.956Z,28.80
2022-08-10T11:26:35.360Z,28.70
2022-08-10T11:29:14.220Z,28.50
2022-08-10T11:31:59.681Z,28.50
2022-08-10T11:34:47.361Z,28.40
2022-08-10T11:37:18.817Z,28.40
2022-08-10T11:39:53.006Z,28.60
2022-08-10T11:42:38.441Z,28.80
2022-08-10T11:45:12.438Z,29.10
2022-08-10T11:47:41.756Z,29.10
2022-08-10T11:50:10.713Z,29.10
2022-08-10T11:52:49.637Z,29.30
2022-08-10T11:55:20.282Z,29.40
2022-08-10T11:57:54.273Z,29.30
2022-08-10T12:00:22.332Z,29.10
2022-08-10T12:03:05.594Z,29.20
2022-08-10T12:05:54.221Z,29.10
2022-08-10T12:10:06.366Z,29.00
2022-08-10T12:11:10.973Z,28.70
2022-08-10T12:13:58.419Z,28.20
2022-08-10T12:16:29.286Z,28.00
2022-08-10T12:19:03.549Z,28.30
2022-08-10T12:21:39.201Z,28.70
2022-08-10T12:24:09.745Z,29.10
2022-08-10T12:26:56.579Z,29.60
2022-08-10T12:29:27.895Z,29.30
2022-08-10T12:32:11.276Z,29.40
2022-08-10T12:34:40.415Z,29.70
2022-08-10T12:37:23.300Z,30.00
2022-08-10T12:40:33.521Z,30.30
2022-08-10T12:43:13.249Z,30.30
2022-08-10T12:46:06.510Z,29.80
2022-08-10T12:48:42.067Z,29.80
2022-08-10T12:51:13.830Z,29.80
2022-08-10T12:53:43.456Z,29.80
2022-08-10T12:56:10.166Z,30.00
2022-08-10T12:58:58.965Z,29.80
2022-08-10T13:01:25.192Z,29.70
2022-08-10T13:04:22.398Z,29.40
2022-08-10T13:06:41.646Z,29.40
2022-08-10T13:09:08.624Z,29.20
2022-08-10T13:12:35.786Z,29.20
2022-08-10T13:14:57.776Z,29.30
2022-08-10T13:17:39.735Z,28.80
2022-08-10T13:20:15.571Z,28.90
2022-08-10T13:22:42.245Z,28.90
2022-08-10T13:25:09.008Z,28.80
2022-08-10T13:28:01.158Z,28.40
2022-08-10T13:30:33.401Z,27.90
2022-08-10T13:33:04.863Z,27.80
2022-08-10T13:35:31.428Z,28.10
2022-08-10T13:37:58.059Z,28.50
2022-08-10T13:40:24.934Z,28.90
2022-08-10T13:42:51.599Z,29.30
2022-08-10T13:45:20.249Z,29.50
2022-08-10T13:47:50.219Z,29.40
2022-08-10T13:50:21.480Z,29.50
2022-08-10T13:53:01.415Z,29.50
2022-08-10T13:55:28.272Z,29.60
2022-08-10T13:58:14.854Z,29.70
2022-08-10T14:00:43.061Z,29.60
2022-08-10T14:03:10.950Z,29.40
2022-08-10T14:05:38.275Z,29.30
2022-08-10T14:08:05.384Z,29.50
2022-08-10T14:11:04.067Z,29.70
2022-08-10T14:13:23.340Z,29.60
2022-08-10T14:15:50.108Z,29.30
2022-08-10T14:18:17.083Z,29.20
2022-08-10T14:20:43.662Z,29.30
2022-08-10T14:23:11.009Z,29.40
2022-08-10T14:25:47.990Z,29.60
2022-08-10T14:28:14.589Z,29.50
2022-08-10T14:30:42.704Z,29.30
2022-08-10T14:33:09.370Z,29.40
2022-08-10T14:36:18.515Z,29.50
2022-08-10T14:38:26.829Z,29.30
2022-08-10T14:40:53.860Z,29.30
2022-08-10T14:43:28.579Z,29.10
2022-08-10T14:46:01.509Z,29.30
2022-08-10T14:48:31.784Z,29.30
2022-08-10T14:50:59.933Z,29.20
2022-08-10T14:53:28.315Z,29.10
2022-08-10T14:55:57.678Z,28.90
2022-08-10T14:58:38.738Z,28.90
2022-08-10T15:01:05.811Z,28.80
2022-08-10T15:03:58.788Z,28.70
2022-08-10T15:06:20.906Z,28.90
2022-08-10T15:09:04.761Z,29.00
2022-08-10T15:12:13.857Z,29.20
2022-08-10T15:14:42.200Z,29.30
2022-08-10T15:17:11.185Z,29.30
2022-08-10T15:20:02.888Z,29.30
2022-08-10T15:22:41.233Z,29.30
2022-08-10T15:25:18.751Z,29.40
2022-08-10T15:27:53.461Z,29.40
2022-08-10T15:30:22.876Z,29.20
2022-08-10T15:33:14.813Z,29.10
2022-08-10T15:36:07.113Z,29.10
2022-08-10T15:38:38.058Z,29.10
2022-08-10T15:41:07.172Z,29.10
2022-08-10T15:43:44.497Z,29.10
2022-08-10T15:46:22.303Z,29.20
2022-08-10T15:48:59.264Z,29.00
2022-08-10T15:51:33.763Z,28.70
2022-08-10T15:54:14.975Z,28.70
2022-08-10T15:56:41.583Z,28.60
2022-08-10T15:59:09.398Z,28.60
2022-08-10T16:02:15.063Z,28.60
2022-08-10T16:04:47.662Z,28.60
2022-08-10T16:07:16.949Z,28.50
2022-08-10T16:10:22.695Z,28.50
2022-08-10T16:12:40.525Z,28.40
2022-08-10T16:15:10.304Z,28.40
2022-08-10T16:17:54.700Z,28.40
2022-08-10T16:20:53.035Z,28.40
2022-08-10T16:23:25.656Z,28.30
2022-08-10T16:26:01.837Z,28.30
2022-08-10T16:28:32.862Z,28.20
2022-08-10T16:30:59.715Z,28.10
2022-08-10T16:33:52.993Z,28.00
2022-08-10T16:36:14.820Z,28.10
2022-08-10T16:38:42.578Z,28.10
2022-08-10T16:42:02.181Z,28.00
2022-08-10T16:43:56.080Z,28.10
2022-08-10T16:46:22.652Z,28.00
2022-08-10T16:48:50.738Z,27.90
2022-08-10T16:51:20.884Z,27.80
2022-08-10T16:53:47.737Z,27.70
2022-08-10T16:56:17.436Z,27.70
2022-08-10T16:58:44.904Z,27.70
2022-08-10T17:01:12.507Z,27.60
2022-08-10T17:04:07.087Z,27.60
2022-08-10T17:06:33.948Z,27.60
2022-08-10T17:09:00.796Z,27.60
2022-08-10T17:11:28.592Z,27.50
2022-08-10T17:13:56.112Z,27.50
2022-08-10T17:16:22.702Z,27.50
2022-08-10T17:18:49.420Z,27.40
2022-08-10T17:21:23.111Z,27.40
2022-08-10T17:23:50.744Z,27.20
2022-08-10T17:26:23.921Z,27.20
2022-08-10T17:29:06.648Z,27.20
2022-08-10T17:31:54.642Z,27.10
2022-08-10T17:34:23.602Z,27.10
2022-08-10T17:36:51.525Z,27.10
2022-08-10T17:39:23.123Z,27.00
2022-08-10T17:41:53.360Z,26.90
2022-08-10T17:44:20.232Z,26.90
2022-08-10T17:46:46.943Z,26.80
2022-08-10T17:49:14.133Z,26.80
2022-08-10T17:51:41.384Z,26.70
2022-08-10T17:54:09.147Z,26.70
2022-08-10T17:56:37.941Z,26.60
2022-08-10T17:59:11.945Z,26.50
2022-08-10T18:01:58.959Z,26.40
2022-08-10T18:04:32.009Z,26.40
2022-08-10T18:07:01.467Z,26.30
2022-08-10T18:09:34.689Z,26.30
2022-08-10T18:12:02.327Z,26.10
2022-08-10T18:14:36.699Z,26.00
2022-08-10T18:17:07.280Z,26.00
2022-08-10T18:19:33.945Z,25.90
2022-08-10T18:22:00.526Z,25.80
2022-08-10T18:24:27.265Z,25.70
2022-08-10T18:26:53.846Z,25.60
2022-08-10T18:29:20.905Z,25.50
2022-08-10T18:31:47.738Z,25.40
2022-08-10T18:34:18.303Z,25.30
2022-08-10T18:36:44.980Z,25.20
2022-08-10T18:39:12.741Z,25.10
2022-08-10T18:41:40.061Z,25.00
2022-08-10T18:44:28.781Z,24.80
2022-08-10T18:46:56.100Z,24.70
2022-08-10T18:49:29.353Z,24.60
2022-08-10T18:51:57.264Z,24.50
2022-08-10T18:54:39.912Z,24.40
2022-08-10T18:57:17.231Z,24.30
2022-08-10T19:00:07.823Z,24.20
2022-08-10T19:02:41.687Z,24.20
2022-08-10T19:05:31.610Z,24.10
2022-08-10T19:07:58.812Z,24.00
2022-08-10T19:10:25.345Z,23.90
2022-08-10T19:13:03.001Z,23.90
2022-08-10T19:15:31.137Z,23.80
2022-08-10T19:18:19.896Z,23.60
2022-08-10T19:20:49.564Z,23.50
2022-08-10T19:23:27.322Z,23.40
2022-08-10T19:26:41.464Z,23.30
2022-08-10T19:29:10.415Z,23.20
2022-08-10T19:31:45.890Z,23.00
2022-08-10T19:34:26.788Z,22.90
2022-08-10T19:36:59.661Z,22.80
2022-08-10T19:39:34.044Z,22.70
2022-08-10T19:42:21.590Z,22.60
2022-08-10T19:45:05.277Z,22.60
2022-08-10T19:47:32.537Z,22.50
2022-08-10T19:50:00.694Z,22.40
2022-08-10T19:52:30.829Z,22.40
2022-08-10T19:55:05.182Z,22.30
2022-08-10T19:57:44.232Z,22.20
2022-08-10T20:00:18.946Z,22.10
2022-08-10T20:02:51.627Z,22.00
2022-08-10T20:05:21.701Z,21.90
2022-08-10T20:07:54.313Z,21.70
2022-08-10T20:10:47.541Z,21.70
2022-08-10T20:13:29.381Z,21.70
2022-08-10T20:15:57.086Z,21.60
2022-08-10T20:18:35.479Z,21.50
2022-08-10T20:21:08.141Z,21.30
2022-08-10T20:23:35.271Z,21.20
2022-08-10T20:26:05.638Z,21.10
2022-08-10T20:28:38.256Z,20.90
2022-08-10T20:31:17.391Z,20.80
2022-08-10T20:34:04.761Z,20.60
2022-08-10T20:36:32.419Z,20.60
2022-08-10T20:39:08.120Z,20.40
2022-08-10T20:41:45.853Z,20.30
2022-08-10T20:44:28.294Z,20.20
2022-08-10T20:47:13.657Z,20.10
2022-08-10T20:50:03.669Z,20.00
2022-08-10T20:52:30.268Z,19.90
2022-08-10T20:55:01.935Z,19.90
2022-08-10T20:57:54.527Z,19.80
2022-08-10T21:00:23.387Z,19.80
2022-08-10T21:03:06.924Z,19.70
2022-08-10T21:05:52.923Z,19.60
2022-08-10T21:08:22.927Z,19.60
2022-08-10T21:10:52.461Z,19.50
2022-08-10T21:13:37.926Z,19.50
2022-08-10T21:16:20.260Z,19.50
2022-08-10T21:19:06.805Z,19.50
2022-08-10T21:21:56.858Z,19.50
2022-08-10T21:24:26.021Z,19.40
2022-08-10T21:26:55.877Z,19.40
2022-08-10T21:29:41.155Z,19.40
2022-08-10T21:32:13.652Z,19.40
2022-08-10T21:34:59.165Z,19.40
2022-08-10T21:37:25.953Z,19.40
2022-08-10T21:40:32.344Z,19.40
2022-08-10T21:43:32.148Z,19.40
2022-08-10T21:46:37.573Z,19.30
2022-08-10T21:49:24.374Z,19.30
2022-08-10T21:52:16.359Z,19.20
2022-08-10T21:55:09.479Z,19.20
2022-08-10T21:57:59.805Z,19.20
2022-08-10T22:00:45.219Z,19.20
2022-08-10T22:03:40.054Z,19.10
2022-08-10T22:06:25.546Z,19.00
2022-08-10T22:09:15.260Z,19.00
2022-08-10T22:12:00.862Z,19.00
2022-08-10T22:14:47.766Z,18.90
2022-08-10T22:18:03.462Z,18.90
2022-08-10T22:20:58.781Z,18.90
2022-08-10T22:23:43.780Z,18.80
2022-08-10T22:26:28.927Z,18.70
2022-08-10T22:29:15.125Z,18.60
2022-08-10T22:32:14.635Z,18.60
2022-08-10T22:35:18.513Z,18.60
2022-08-10T22:38:22.493Z,18.70
2022-08-10T22:41:07.590Z,18.60
2022-08-10T22:43:53.051Z,18.60
2022-08-10T22:46:42.094Z,18.50
2022-08-10T22:49:08.638Z,18.50
2022-08-10T22:51:54.565Z,18.50
2022-08-10T22:54:41.802Z,18.40
2022-08-10T22:57:30.200Z,18.40
2022-08-10T22:59:56.801Z,18.40
2022-08-10T23:02:28.172Z,18.30
2022-08-10T23:04:56.516Z,18.40
2022-08-10T23:07:26.832Z,18.40
2022-08-10T23:10:01.373Z,18.40
2022-08-10T23:12:30.305Z,18.40
2022-08-10T23:15:15.817Z,18.40
2022-08-10T23:18:05.077Z,18.30
2022-08-10T23:20:31.693Z,18.20
2022-08-10T23:23:04.782Z,18.20
2022-08-10T23:25:34.125Z,18.10
2022-08-10T23:28:12.244Z,18.00
2022-08-10T23:30:40.508Z,18.00
2022-08-10T23:33:11.880Z,18.00
2022-08-10T23:36:30.311Z,18.00
2022-08-10T23:38:28.845Z,18.00
2022-08-10T23:40:59.648Z,17.90
2022-08-10T23:43:41.066Z,18.00
2022-08-10T23:46:13.645Z,18.00
2022-08-10T23:48:40.223Z,18.00
2022-08-10T23:51:16.508Z,18.00
2022-08-10T23:53:44.430Z,18.00
2022-08-10T23:56:14.492Z,17.90
2022-08-10T23:58:42.664Z,17.80
